Terminal Aerodrome Forecast
Issued by NWS

Home | Current Version | Previous Version | Text Only | Print | Product List | Glossary On
Versions: 1 2 3 4 5 6 7 8 9 10 11 12 13 14
000
FTUS41 KCLE 022330
TAFFDY
TAF
KFDY 022330Z 0300/0324 22015G25KT P6SM SCT070
     FM030300 23012G20KT P6SM BKN070
     FM030600 23012KT 3SM SHRA OVC035
     FM030900 24010KT P6SM BKN050
     FM031400 27010KT P6SM SCT050=

USA.gov is the U.S. government's official web portal to all federal, state and local government web resources and services.